Time;durP1;ratioP1;P1;durP2;ratioP2;P2;SDS_P1;SDS_P2;PMS_P1;PMS_P2;Temp;Humidity;BMP_temperature;BMP_pressure;BME280_temperature;BME280_humidity;BME280_pressure;Samples;Min_cycle;Max_cycle;Signal;HPM_P1;HPM_P2
2024/03/16 00:01:35;;;;;;;5.80;3.57;;;;;;;10.04;93.63;97588.03;6319986;28;20186;-55
2024/03/16 00:04:37;;;;;;;5.87;3.70;;;;;;;9.74;96.33;97582.97;6323138;28;20229;-53
2024/03/16 00:07:42;;;;;;;7.27;3.80;;;;;;;9.78;96.95;97579.59;6318944;28;20240;-51
2024/03/16 00:10:45;;;;;;;5.73;3.53;;;;;;;9.45;100.00;97574.19;6319518;28;20942;-53
2024/03/16 00:13:48;;;;;;;5.60;2.93;;;;;;;9.25;100.00;97572.75;6314216;28;20601;-53
2024/03/16 00:16:51;;;;;;;5.57;3.43;;;;;;;9.11;100.00;97542.16;6318231;28;20196;-57
2024/03/16 00:19:53;;;;;;;6.53;3.27;;;;;;;9.22;100.00;97572.44;6316885;28;20192;-56
2024/03/16 00:22:55;;;;;;;4.57;3.17;;;;;;;9.21;100.00;97573.44;6317106;28;20199;-50
2024/03/16 00:25:58;;;;;;;5.17;2.60;;;;;;;9.03;100.00;97566.47;6316475;28;20200;-57
2024/03/16 00:29:00;;;;;;;3.93;2.80;;;;;;;9.04;100.00;97563.56;6317979;28;20285;-58
2024/03/16 00:32:02;;;;;;;5.37;3.00;;;;;;;9.27;100.00;97559.25;6317366;28;20234;-56
2024/03/16 00:35:05;;;;;;;5.77;2.93;;;;;;;9.27;100.00;97569.88;6318192;28;20200;-59
2024/03/16 00:38:08;;;;;;;3.30;1.90;;;;;;;9.19;100.00;97549.78;6318508;28;20327;-54
2024/03/16 00:41:20;;;;;;;11.00;5.63;;;;;;;9.35;100.00;97563.34;6313716;28;20202;-58
2024/03/16 00:44:22;;;;;;;11.47;5.30;;;;;;;9.28;100.00;97553.66;6318550;28;20320;-58
2024/03/16 00:47:24;;;;;;;13.83;7.57;;;;;;;9.34;100.00;97559.09;6313598;28;20187;-56
2024/03/16 00:50:27;;;;;;;22.63;13.40;;;;;;;9.39;100.00;97548.56;6317264;28;20180;-55
2024/03/16 00:53:29;;;;;;;21.37;13.43;;;;;;;9.21;100.00;97557.50;6294563;28;20196;-58
2024/03/16 00:56:31;;;;;;;24.83;14.83;;;;;;;9.16;100.00;97552.09;6318814;28;20564;-55
2024/03/16 00:59:33;;;;;;;15.93;10.53;;;;;;;9.19;100.00;97554.28;6317504;28;20208;-59
2024/03/16 01:02:36;;;;;;;7.90;4.60;;;;;;;9.25;100.00;97550.69;6315642;28;20314;-57
2024/03/16 01:05:38;;;;;;;5.43;3.57;;;;;;;9.19;100.00;97552.44;6317152;28;20197;-55
2024/03/16 01:08:40;;;;;;;4.53;2.57;;;;;;;9.07;100.00;97553.53;6306022;28;20193;-55
2024/03/16 01:11:43;;;;;;;3.67;2.43;;;;;;;9.03;100.00;97553.97;6320070;28;20206;-57
2024/03/16 01:14:45;;;;;;;5.43;1.77;;;;;;;8.97;100.00;97554.13;6320645;28;20201;-55
2024/03/16 01:17:47;;;;;;;1.27;1.10;;;;;;;9.00;100.00;97554.44;6316240;28;20211;-58
2024/03/16 01:20:50;;;;;;;2.80;1.37;;;;;;;8.98;100.00;97561.84;6319664;28;20199;-57
2024/03/16 01:23:52;;;;;;;2.53;1.67;;;;;;;8.81;100.00;97560.94;6319519;28;20192;-57
2024/03/16 01:26:55;;;;;;;3.67;1.60;;;;;;;8.81;100.00;97562.78;6317427;28;20198;-58
2024/03/16 01:29:57;;;;;;;4.00;1.53;;;;;;;8.77;100.00;97557.97;6316086;28;20222;-58
2024/03/16 01:33:00;;;;;;;2.13;1.17;;;;;;;8.68;100.00;97556.69;6316332;28;20197;-56
2024/03/16 01:36:03;;;;;;;2.53;1.23;;;;;;;8.56;100.00;97550.56;6319431;28;20327;-58
2024/03/16 01:39:05;;;;;;;5.03;1.17;;;;;;;8.68;100.00;97554.03;6321507;28;20336;-52
2024/03/16 01:42:08;;;;;;;4.83;1.20;;;;;;;8.66;100.00;97547.31;6320066;28;20194;-53
2024/03/16 01:45:14;;;;;;;3.47;1.67;;;;;;;8.49;100.00;97544.59;6317166;28;20249;-54
2024/03/16 01:48:17;;;;;;;4.37;1.47;;;;;;;8.51;100.00;97551.25;6328158;28;20283;-57
2024/03/16 01:51:19;;;;;;;4.97;1.97;;;;;;;8.14;100.00;97529.44;6318410;28;20196;-55
2024/03/16 01:54:21;;;;;;;2.80;1.80;;;;;;;7.97;100.00;97523.97;6316899;28;20289;-57
2024/03/16 01:57:24;;;;;;;4.20;1.80;;;;;;;8.18;100.00;97556.31;6318633;28;20205;-58
2024/03/16 02:00:26;;;;;;;4.53;3.13;;;;;;;8.05;100.00;97556.53;6325139;28;20329;-56
2024/03/16 02:03:29;;;;;;;5.43;3.07;;;;;;;8.15;100.00;97552.25;6315740;28;20729;-52
2024/03/16 02:06:31;;;;;;;6.53;3.60;;;;;;;7.96;100.00;97548.88;6314765;28;20705;-57
2024/03/16 02:09:33;;;;;;;6.10;3.80;;;;;;;7.72;100.00;97557.81;6316381;28;20194;-59
2024/03/16 02:12:36;;;;;;;7.77;2.40;;;;;;;7.72;100.00;97545.38;6312609;28;20190;-54
2024/03/16 02:15:38;;;;;;;4.10;1.90;;;;;;;7.71;100.00;97550.91;6318886;28;20201;-52
2024/03/16 02:18:41;;;;;;;3.27;2.17;;;;;;;7.39;100.00;97553.81;6316754;28;20213;-55
2024/03/16 02:21:43;;;;;;;2.87;1.97;;;;;;;7.24;100.00;97553.38;6316345;28;20745;-53
2024/03/16 02:24:48;;;;;;;5.43;3.03;;;;;;;7.09;100.00;97537.88;6315551;28;20200;-46
2024/03/16 02:27:51;;;;;;;6.67;2.83;;;;;;;7.37;100.00;97561.16;6318669;28;20197;-57
2024/03/16 02:30:53;;;;;;;4.43;2.90;;;;;;;7.08;100.00;97554.78;6314041;28;20201;-55
2024/03/16 02:33:58;;;;;;;3.50;2.13;;;;;;;7.02;100.00;97557.53;6313758;28;20216;-54
2024/03/16 02:37:00;;;;;;;7.80;2.87;;;;;;;6.80;100.00;97557.97;6321130;28;20209;-56
2024/03/16 02:40:03;;;;;;;6.00;2.27;;;;;;;6.73;100.00;97558.03;6315177;28;20205;-58
2024/03/16 02:43:06;;;;;;;7.40;2.63;;;;;;;6.72;100.00;97526.50;6316764;28;20189;-57
2024/03/16 02:46:09;;;;;;;4.50;2.70;;;;;;;6.93;100.00;97557.81;6310901;28;20742;-56
2024/03/16 02:49:11;;;;;;;7.03;3.90;;;;;;;7.01;100.00;97566.50;6314044;28;20669;-53
2024/03/16 02:52:14;;;;;;;11.67;5.37;;;;;;;6.62;100.00;97568.56;6317962;28;20193;-56
2024/03/16 02:55:16;;;;;;;10.13;4.60;;;;;;;6.47;100.00;97566.25;6316087;28;20190;-52
2024/03/16 02:58:18;;;;;;;15.70;5.67;;;;;;;6.45;100.00;97566.47;6314773;28;20228;-54
2024/03/16 03:01:21;;;;;;;10.83;5.23;;;;;;;6.41;100.00;97578.53;6315533;28;20192;-55
2024/03/16 03:04:23;;;;;;;8.43;4.50;;;;;;;6.32;100.00;97571.88;6313830;28;20208;-56
2024/03/16 03:07:25;;;;;;;7.80;5.00;;;;;;;6.23;100.00;97580.31;6318577;28;20280;-56
2024/03/16 03:10:28;;;;;;;11.33;3.70;;;;;;;6.12;100.00;97576.53;6312236;28;20193;-52
2024/03/16 03:13:30;;;;;;;10.73;4.20;;;;;;;6.09;100.00;97577.75;6297387;28;20208;-56
2024/03/16 03:16:32;;;;;;;17.80;10.93;;;;;;;6.16;100.00;97583.00;6312979;28;20270;-57
2024/03/16 03:19:36;;;;;;;20.10;10.57;;;;;;;6.12;100.00;97581.81;6314830;28;20289;-54
2024/03/16 03:22:38;;;;;;;16.40;8.53;;;;;;;6.24;100.00;97588.00;6317722;28;20302;-53
2024/03/16 03:25:40;;;;;;;19.43;9.50;;;;;;;6.23;100.00;97573.19;6305797;28;20545;-58
2024/03/16 03:28:43;;;;;;;13.13;7.17;;;;;;;6.32;100.00;97592.25;6326084;28;20195;-53
2024/03/16 03:31:45;;;;;;;15.87;8.90;;;;;;;6.21;100.00;97580.53;6319595;28;20211;-54
2024/03/16 03:34:47;;;;;;;16.57;7.87;;;;;;;6.13;100.00;97589.53;6320749;28;20277;-56
2024/03/16 03:37:50;;;;;;;19.03;9.67;;;;;;;6.14;100.00;97587.69;6321870;28;20210;-54
2024/03/16 03:40:52;;;;;;;20.27;9.40;;;;;;;6.16;100.00;97588.31;6316964;28;20560;-55
2024/03/16 03:44:09;;;;;;;17.00;7.47;;;;;;;6.08;100.00;97570.84;6317568;28;20581;-48
2024/03/16 03:47:11;;;;;;;8.80;5.80;;;;;;;5.93;100.00;97568.53;6301463;28;20625;-52
2024/03/16 03:50:13;;;;;;;12.33;5.73;;;;;;;6.19;100.00;97598.44;6308647;28;20576;-55
2024/03/16 03:53:17;;;;;;;9.00;4.00;;;;;;;6.28;100.00;97586.56;6319223;28;20221;-54
2024/03/16 03:56:19;;;;;;;7.43;4.37;;;;;;;6.27;100.00;97594.72;6317416;28;20193;-54
2024/03/16 03:59:22;;;;;;;9.07;3.73;;;;;;;6.40;100.00;97591.94;6323849;28;20357;-56
2024/03/16 04:02:24;;;;;;;10.50;4.23;;;;;;;6.42;100.00;97598.66;6301187;28;20280;-55
2024/03/16 04:05:26;;;;;;;7.03;4.27;;;;;;;6.32;100.00;97603.63;6323311;28;20190;-58
2024/03/16 04:08:29;;;;;;;10.30;4.27;;;;;;;6.20;100.00;97597.41;6311088;28;20852;-55
2024/03/16 04:11:31;;;;;;;10.03;4.00;;;;;;;6.09;100.00;97590.97;6322169;28;20196;-48
2024/03/16 04:14:34;;;;;;;8.27;6.13;;;;;;;6.12;100.00;97595.84;6318425;28;20186;-55
2024/03/16 04:17:36;;;;;;;9.43;5.87;;;;;;;6.10;100.00;97591.78;6319026;28;20188;-56
2024/03/16 04:20:38;;;;;;;13.23;6.70;;;;;;;6.22;100.00;97592.72;6304597;28;20242;-53
2024/03/16 04:23:40;;;;;;;9.13;5.00;;;;;;;6.42;100.00;97597.84;6300307;28;20248;-58
2024/03/16 04:26:43;;;;;;;22.33;8.80;;;;;;;6.24;100.00;97592.50;6322716;28;20204;-56
2024/03/16 04:29:45;;;;;;;14.33;7.33;;;;;;;6.35;100.00;97599.72;6324279;28;20264;-55
2024/03/16 04:32:47;;;;;;;17.13;6.97;;;;;;;6.04;100.00;97568.84;6316460;28;20326;-58
2024/03/16 04:35:49;;;;;;;14.20;6.00;;;;;;;6.17;100.00;97603.16;6320390;28;20197;-55
2024/03/16 04:38:52;;;;;;;11.10;5.30;;;;;;;6.23;100.00;97593.53;6317094;28;20279;-56
2024/03/16 04:41:54;;;;;;;10.87;5.10;;;;;;;6.16;100.00;97593.59;6319105;28;20266;-58
2024/03/16 04:44:56;;;;;;;9.43;6.20;;;;;;;6.14;100.00;97601.72;6320366;28;20233;-55
2024/03/16 04:47:58;;;;;;;10.20;5.90;;;;;;;6.19;100.00;97601.88;6321415;28;20184;-58
2024/03/16 04:51:01;;;;;;;25.00;13.27;;;;;;;6.19;100.00;97601.88;6318475;28;20207;-54
2024/03/16 04:54:03;;;;;;;20.43;11.27;;;;;;;6.29;100.00;97608.53;6326748;28;20214;-57
2024/03/16 04:57:05;;;;;;;23.83;12.73;;;;;;;6.52;100.00;97608.75;6323004;28;20414;-49
2024/03/16 05:00:11;;;;;;;29.43;17.57;;;;;;;6.57;100.00;97608.09;6315685;28;20216;-54
2024/03/16 05:03:14;;;;;;;33.27;18.43;;;;;;;6.48;100.00;97615.50;6318723;28;20280;-56
2024/03/16 05:06:16;;;;;;;26.23;15.47;;;;;;;6.52;100.00;97605.28;6315583;28;20188;-55
2024/03/16 05:09:20;;;;;;;19.97;10.27;;;;;;;6.54;100.00;97617.28;6319173;28;20550;-57
2024/03/16 05:12:23;;;;;;;13.63;7.27;;;;;;;6.72;100.00;97619.16;6319998;28;20189;-55
2024/03/16 05:15:25;;;;;;;12.60;8.13;;;;;;;6.84;100.00;97613.94;6322240;28;20185;-54
2024/03/16 05:18:27;;;;;;;17.70;10.23;;;;;;;7.08;100.00;97612.25;6318044;28;20205;-54
2024/03/16 05:21:31;;;;;;;8.47;6.37;;;;;;;6.92;100.00;97587.19;6320954;28;20196;-54
2024/03/16 05:24:33;;;;;;;5.50;4.50;;;;;;;7.08;100.00;97620.19;6306061;28;20200;-57
2024/03/16 05:27:35;;;;;;;7.60;5.27;;;;;;;7.13;100.00;97621.16;6320868;28;20212;-58
2024/03/16 05:30:37;;;;;;;6.10;4.63;;;;;;;7.26;100.00;97614.09;6305230;28;20240;-55
2024/03/16 05:33:40;;;;;;;10.13;3.37;;;;;;;7.20;100.00;97621.09;6317176;28;20181;-55
2024/03/16 05:36:42;;;;;;;5.83;2.80;;;;;;;7.25;100.00;97618.59;6320290;28;20262;-57
2024/03/16 05:39:45;;;;;;;3.33;2.00;;;;;;;7.27;100.00;97621.81;6317365;28;20190;-58
2024/03/16 05:42:47;;;;;;;3.87;2.47;;;;;;;7.46;100.00;97628.72;6316456;28;20204;-56
2024/03/16 05:45:52;;;;;;;4.63;2.10;;;;;;;7.48;100.00;97631.13;6318193;28;20316;-56
2024/03/16 05:48:56;;;;;;;3.17;2.10;;;;;;;7.57;100.00;97639.59;6316440;28;20248;-58
2024/03/16 05:51:59;;;;;;;3.90;2.00;;;;;;;7.88;100.00;97638.56;6316791;28;20280;-58
2024/03/16 05:55:02;;;;;;;2.67;1.70;;;;;;;8.91;100.00;97645.34;6320397;28;20587;-57
2024/03/16 05:58:04;;;;;;;3.70;1.37;;;;;;;9.30;100.00;97646.47;6321854;28;20297;-54
2024/03/16 06:01:06;;;;;;;2.63;1.47;;;;;;;9.36;100.00;97639.41;6315753;28;20194;-56
2024/03/16 06:04:09;;;;;;;2.83;1.60;;;;;;;9.82;100.00;97649.91;6314162;28;20906;-56
2024/03/16 06:07:12;;;;;;;2.63;1.53;;;;;;;9.89;100.00;97641.78;6317024;28;20685;-57
2024/03/16 06:10:14;;;;;;;80.03;31.43;;;;;;;9.79;100.00;97658.34;6320093;28;20286;-59
2024/03/16 06:13:17;;;;;;;141.33;39.50;;;;;;;9.49;100.00;97655.91;6315851;28;20192;-59
2024/03/16 06:16:21;;;;;;;15.47;4.37;;;;;;;9.33;100.00;97664.63;6327507;28;20678;-58
2024/03/16 06:19:23;;;;;;;4.47;1.90;;;;;;;9.17;100.00;97676.78;6312040;28;20213;-60
2024/03/16 06:22:26;;;;;;;4.70;2.10;;;;;;;9.11;100.00;97667.06;6316976;28;20863;-55
2024/03/16 06:25:29;;;;;;;2.27;1.17;;;;;;;9.17;100.00;97678.63;6317159;28;20180;-59
2024/03/16 06:28:35;;;;;;;1.87;1.10;;;;;;;9.38;100.00;97667.38;6311229;28;20186;-60
2024/03/16 06:31:41;;;;;;;2.60;1.53;;;;;;;9.43;100.00;97683.44;6319852;28;20308;-57
2024/03/16 06:34:44;;;;;;;2.10;1.27;;;;;;;9.37;100.00;97664.97;6309088;28;20179;-59
2024/03/16 06:37:46;;;;;;;2.83;1.43;;;;;;;9.61;100.00;97679.03;6307331;28;20338;-59
2024/03/16 06:40:49;;;;;;;3.30;1.50;;;;;;;9.70;100.00;97681.06;6315848;28;20299;-56
2024/03/16 06:43:51;;;;;;;1.57;1.00;;;;;;;10.20;100.00;97688.41;6312483;28;20261;-59
2024/03/16 06:46:54;;;;;;;1.00;0.90;;;;;;;10.27;100.00;97689.09;6320496;28;20192;-58
2024/03/16 06:49:56;;;;;;;1.40;1.00;;;;;;;10.52;100.00;97691.38;6299650;28;20794;-59
2024/03/16 06:52:59;;;;;;;133.70;28.37;;;;;;;10.93;100.00;97701.88;6311380;28;20220;-57
2024/03/16 06:56:04;;;;;;;334.77;97.93;;;;;;;10.09;100.00;97678.59;6317909;28;20563;-57
2024/03/16 06:59:06;;;;;;;13.83;5.13;;;;;;;10.08;100.00;97707.06;6318018;28;20677;-54
2024/03/16 07:02:08;;;;;;;37.20;11.20;;;;;;;9.67;100.00;97710.81;6313981;28;20221;-56
2024/03/16 07:05:11;;;;;;;4.00;1.57;;;;;;;9.92;100.00;97730.97;6312527;28;20197;-51
2024/03/16 07:08:17;;;;;;;2.17;1.20;;;;;;;10.72;100.00;97716.75;6313368;28;20655;-59
2024/03/16 07:11:19;;;;;;;1.80;1.13;;;;;;;11.03;100.00;97724.19;6318044;28;21832;-54
2024/03/16 07:14:21;;;;;;;2.73;1.30;;;;;;;11.18;96.90;97715.63;6317676;28;20197;-58
2024/03/16 07:17:26;;;;;;;3.37;1.67;;;;;;;11.05;97.96;97705.28;6316894;28;20193;-54
2024/03/16 07:20:30;;;;;;;3.63;2.07;;;;;;;11.35;96.91;97731.56;6313983;28;20218;-52
2024/03/16 07:23:32;;;;;;;2.13;1.10;;;;;;;11.41;94.76;97729.78;6315644;28;20229;-52
2024/03/16 07:26:35;;;;;;;3.97;1.20;;;;;;;11.29;93.81;97725.38;6319949;28;20611;-55
2024/03/16 07:29:37;;;;;;;2.40;1.47;;;;;;;11.25;94.22;97726.91;6314721;28;20186;-58
2024/03/16 07:32:40;;;;;;;1.23;1.13;;;;;;;11.53;87.65;97728.63;6317285;28;20272;-57
2024/03/16 07:35:42;;;;;;;2.53;1.00;;;;;;;11.62;85.65;97748.50;6311762;28;20269;-51
2024/03/16 07:38:44;;;;;;;1.97;1.17;;;;;;;11.49;87.99;97756.84;6317145;28;20209;-54
2024/03/16 07:41:47;;;;;;;0.87;0.80;;;;;;;11.44;87.74;97748.78;6314765;28;20205;-56
2024/03/16 07:44:51;;;;;;;3.73;2.30;;;;;;;11.65;84.77;97762.41;6308886;28;20233;-58
2024/03/16 07:47:54;;;;;;;1.20;0.90;;;;;;;11.61;84.87;97752.19;6313934;28;20194;-57
2024/03/16 07:51:00;;;;;;;1.60;0.83;;;;;;;11.63;84.99;97773.31;6315822;28;21030;-58
2024/03/16 07:54:02;;;;;;;1.77;1.00;;;;;;;11.60;83.54;97771.94;6315943;28;20227;-55
2024/03/16 07:57:05;;;;;;;0.63;0.60;;;;;;;11.46;81.34;97732.53;6313321;28;20201;-52
2024/03/16 08:00:10;;;;;;;0.80;0.50;;;;;;;11.58;81.87;97786.59;6310397;28;20206;-55
2024/03/16 08:03:13;;;;;;;0.60;0.50;;;;;;;11.57;80.94;97767.09;6312460;28;21040;-54
2024/03/16 08:06:15;;;;;;;1.43;0.77;;;;;;;11.66;79.84;97769.34;6292118;28;20208;-50
2024/03/16 08:09:17;;;;;;;0.40;0.40;;;;;;;11.69;81.36;97784.88;6316270;28;20257;-56
2024/03/16 08:12:20;;;;;;;1.00;0.63;;;;;;;11.74;82.09;97790.28;6311083;28;20297;-51
2024/03/16 08:15:22;;;;;;;2.70;0.90;;;;;;;11.75;79.42;97786.53;6316926;28;20189;-54
2024/03/16 08:18:24;;;;;;;20.33;13.70;;;;;;;11.72;81.68;97776.34;6316333;28;20193;-57
2024/03/16 08:21:27;;;;;;;1.13;0.90;;;;;;;11.88;81.33;97786.22;6309733;28;20680;-56
2024/03/16 08:24:29;;;;;;;5.37;1.33;;;;;;;11.90;82.30;97769.97;6321005;28;20284;-56
2024/03/16 08:27:35;;;;;;;4.50;3.23;;;;;;;12.01;81.67;97759.16;6311670;28;20194;-58
2024/03/16 08:30:38;;;;;;;3.90;3.20;;;;;;;12.13;78.82;97762.50;6311962;28;20186;-54
2024/03/16 08:33:41;;;;;;;2.33;1.57;;;;;;;12.12;81.16;97768.91;6308183;28;20202;-51
2024/03/16 08:36:43;;;;;;;0.73;0.50;;;;;;;12.21;79.62;97763.09;6315417;28;20243;-56
2024/03/16 08:39:45;;;;;;;6.77;5.23;;;;;;;12.21;81.79;97781.81;6313771;28;20228;-48
2024/03/16 08:42:48;;;;;;;1.00;0.63;;;;;;;12.43;75.65;97753.22;6310209;28;20694;-55
2024/03/16 08:45:51;;;;;;;2.53;0.37;;;;;;;12.59;75.97;97783.56;6314477;28;20237;-55
2024/03/16 08:48:53;;;;;;;0.50;0.40;;;;;;;12.54;74.13;97794.19;6317094;28;20554;-50
2024/03/16 08:51:57;;;;;;;0.63;0.47;;;;;;;12.63;75.31;97771.31;6317553;28;20209;-53
2024/03/16 08:55:03;;;;;;;1.60;1.40;;;;;;;12.85;72.42;97744.50;6317825;28;20190;-57
2024/03/16 08:58:07;;;;;;;0.43;0.43;;;;;;;12.86;71.15;97762.19;6318696;28;20194;-55
2024/03/16 09:01:09;;;;;;;0.50;0.40;;;;;;;12.76;73.52;97772.75;6315597;28;20213;-53
2024/03/16 09:04:12;;;;;;;1.17;0.40;;;;;;;12.72;72.89;97779.69;6315744;28;20185;-54
2024/03/16 09:07:15;;;;;;;3.27;2.50;;;;;;;12.53;74.41;97772.03;6318771;28;20194;-54
2024/03/16 09:10:17;;;;;;;5.07;3.70;;;;;;;12.44;76.06;97770.03;6290316;28;20604;-57
2024/03/16 09:13:20;;;;;;;1.70;0.40;;;;;;;12.53;72.99;97777.38;6314575;28;20498;-57
2024/03/16 09:16:22;;;;;;;3.40;0.97;;;;;;;12.55;75.45;97775.22;6314492;28;20201;-53
2024/03/16 09:19:26;;;;;;;2.40;0.40;;;;;;;12.56;76.09;97768.84;6315278;28;20536;-51
2024/03/16 09:22:28;;;;;;;1.13;0.30;;;;;;;12.69;75.56;97772.97;6311757;28;20198;-54
2024/03/16 09:25:30;;;;;;;0.40;0.33;;;;;;;12.79;76.71;97773.06;6313844;28;20217;-55
2024/03/16 09:28:34;;;;;;;2.73;1.90;;;;;;;12.82;73.60;97761.06;6312879;28;20190;-53
2024/03/16 09:31:37;;;;;;;2.17;1.97;;;;;;;12.94;74.70;97785.75;6309601;28;20181;-48
2024/03/16 09:34:39;;;;;;;2.10;1.17;;;;;;;13.19;72.15;97785.16;6312616;28;20546;-50
2024/03/16 09:37:42;;;;;;;0.80;0.40;;;;;;;13.49;70.23;97775.78;6312909;28;20316;-55
2024/03/16 09:40:51;;;;;;;1.13;1.03;;;;;;;13.57;68.79;97773.44;6310526;28;20197;-55
2024/03/16 09:43:54;;;;;;;0.80;0.43;;;;;;;13.60;71.85;97786.31;6311972;28;20229;-55
2024/03/16 09:46:59;;;;;;;0.50;0.30;;;;;;;13.45;70.83;97785.38;6293141;28;20200;-55
2024/03/16 09:50:05;;;;;;;0.30;0.30;;;;;;;13.54;68.93;97790.00;6290891;28;20814;-54
2024/03/16 09:53:16;;;;;;;1.53;0.90;;;;;;;13.14;68.46;97736.97;6285350;28;20182;-54
2024/03/16 09:56:17;;;;;;;1.37;0.40;;;;;;;13.28;66.25;97783.66;6293250;28;20182;-57
2024/03/16 09:59:23;;;;;;;0.93;0.40;;;;;;;13.52;71.43;97781.44;6297110;28;20565;-57
2024/03/16 10:02:24;;;;;;;1.50;0.90;;;;;;;13.97;67.90;97781.94;6289922;28;20345;-57
2024/03/16 10:05:25;;;;;;;7.00;4.53;;;;;;;14.26;65.68;97760.88;6298218;28;20189;-58
2024/03/16 10:08:26;;;;;;;10.37;9.27;;;;;;;14.56;64.80;97782.44;6298544;28;20255;-57
2024/03/16 10:11:27;;;;;;;0.80;0.80;;;;;;;14.67;60.33;97769.84;6290124;28;20181;-50
2024/03/16 10:14:29;;;;;;;9.23;7.63;;;;;;;14.80;62.92;97773.91;6290620;28;20293;-57
2024/03/16 10:17:30;;;;;;;6.50;1.70;;;;;;;15.07;60.43;97792.44;6291357;28;20239;-52
2024/03/16 10:20:31;;;;;;;2.07;0.80;;;;;;;14.80;59.77;97800.72;6295077;28;21012;-53
2024/03/16 10:23:32;;;;;;;0.80;0.50;;;;;;;14.16;61.42;97793.81;6299137;28;20193;-57
2024/03/16 10:26:35;;;;;;;2.47;1.80;;;;;;;14.29;60.38;97804.06;6284678;28;20825;-56
2024/03/16 10:29:37;;;;;;;0.80;0.50;;;;;;;14.26;60.88;97806.44;6297099;28;20263;-53
2024/03/16 10:32:43;;;;;;;1.50;0.60;;;;;;;14.18;63.40;97797.81;6303977;28;20189;-57
2024/03/16 10:35:45;;;;;;;1.03;0.40;;;;;;;14.34;60.43;97774.59;6305285;28;20864;-57
2024/03/16 10:38:50;;;;;;;3.97;1.07;;;;;;;14.50;58.95;97785.38;6307701;28;20239;-56
2024/03/16 10:41:52;;;;;;;1.33;0.70;;;;;;;14.77;59.42;97780.59;6299345;28;20331;-58
2024/03/16 10:44:57;;;;;;;10.83;5.47;;;;;;;15.31;57.88;97788.13;6294256;28;20240;-49
2024/03/16 10:48:02;;;;;;;2.97;2.50;;;;;;;15.27;58.90;97794.31;6304867;28;20194;-58
2024/03/16 10:51:08;;;;;;;1.77;0.87;;;;;;;15.16;59.54;97764.78;6296768;28;20190;-53
2024/03/16 10:54:11;;;;;;;1.33;0.53;;;;;;;15.39;57.76;97786.78;6302548;28;20379;-59
2024/03/16 10:57:13;;;;;;;1.23;0.70;;;;;;;15.07;57.14;97769.06;6299078;28;20186;-53
2024/03/16 11:00:21;;;;;;;14.13;8.53;;;;;;;15.08;58.42;97791.38;6314749;28;20190;-54
2024/03/16 11:03:25;;;;;;;2.20;1.40;;;;;;;14.93;59.06;97786.81;6297505;28;20419;-58
2024/03/16 11:06:26;;;;;;;7.50;5.70;;;;;;;15.03;58.32;97764.53;6299316;28;20640;-58
2024/03/16 11:09:32;;;;;;;15.83;14.13;;;;;;;15.19;58.29;97769.63;6294269;28;20555;-52
2024/03/16 11:12:33;;;;;;;2.80;1.90;;;;;;;15.08;58.22;97776.06;6297947;28;20193;-58
2024/03/16 11:15:38;;;;;;;3.43;2.20;;;;;;;15.09;57.17;97783.06;6298268;28;20696;-52
2024/03/16 11:18:43;;;;;;;2.53;2.10;;;;;;;14.80;58.83;97780.06;6298069;28;20190;-56
2024/03/16 11:21:54;;;;;;;1.73;0.93;;;;;;;14.84;57.83;97777.69;6296819;28;20583;-57
2024/03/16 11:24:55;;;;;;;1.00;0.50;;;;;;;14.70;60.18;97775.50;6300612;28;20206;-59
2024/03/16 11:27:56;;;;;;;2.93;1.20;;;;;;;14.77;58.21;97761.81;6298145;28;20197;-58
2024/03/16 11:31:28;;;;;;;3.77;3.07;;;;;;;14.91;57.34;97768.28;6297032;28;20191;-54
2024/03/16 11:34:30;;;;;;;16.93;12.90;;;;;;;14.65;58.41;97786.22;6292663;28;20240;-58
2024/03/16 11:37:31;;;;;;;14.43;10.53;;;;;;;14.45;59.45;97784.25;6298486;28;20182;-58
2024/03/16 11:40:32;;;;;;;8.27;6.43;;;;;;;14.27;59.72;97790.09;6299427;28;20216;-52
2024/03/16 11:43:34;;;;;;;2.00;0.93;;;;;;;14.19;60.41;97787.94;6285918;28;20201;-53
2024/03/16 11:46:35;;;;;;;0.87;0.80;;;;;;;14.44;61.22;97771.13;6302927;28;20692;-58
2024/03/16 11:49:36;;;;;;;1.97;0.50;;;;;;;14.49;59.13;97752.41;6299514;28;20659;-57
2024/03/16 11:52:37;;;;;;;2.97;1.00;;;;;;;14.51;58.99;97754.81;6304200;28;20190;-51
2024/03/16 11:55:41;;;;;;;1.47;0.90;;;;;;;14.80;57.44;97757.81;6312478;28;20196;-52
2024/03/16 11:58:44;;;;;;;2.43;0.93;;;;;;;14.85;58.15;97777.41;6294826;28;20724;-58
2024/03/16 12:01:49;;;;;;;1.07;0.63;;;;;;;14.84;58.47;97742.81;6300127;28;20201;-57
2024/03/16 12:04:50;;;;;;;0.67;0.50;;;;;;;15.25;56.42;97773.09;6311672;28;20198;-55
2024/03/16 12:07:52;;;;;;;0.80;0.50;;;;;;;15.40;55.00;97742.75;6291577;28;20204;-56
2024/03/16 12:10:53;;;;;;;1.37;0.60;;;;;;;15.60;54.36;97764.19;6290404;28;20201;-59
2024/03/16 12:14:10;;;;;;;1.40;0.70;;;;;;;15.27;53.18;97757.56;6292954;28;20194;-52
2024/03/16 12:17:11;;;;;;;1.00;0.73;;;;;;;15.27;54.05;97754.03;6293990;28;20325;-54
2024/03/16 12:20:17;;;;;;;10.63;8.93;;;;;;;15.44;51.65;97738.47;6275929;28;20233;-55
2024/03/16 12:23:20;;;;;;;1.50;0.90;;;;;;;15.49;52.29;97733.09;6300512;28;20564;-59
2024/03/16 12:26:28;;;;;;;0.70;0.70;;;;;;;15.72;51.69;97729.03;6293971;28;20658;-58
2024/03/16 12:29:31;;;;;;;1.30;0.60;;;;;;;15.23;51.89;97698.25;6295462;28;21017;-58
2024/03/16 12:32:34;;;;;;;1.93;0.60;;;;;;;15.59;51.17;97730.38;6291682;28;20197;-56
2024/03/16 12:35:40;;;;;;;2.00;0.57;;;;;;;15.47;49.84;97732.56;6293684;28;20278;-58
2024/03/16 12:38:41;;;;;;;0.90;0.50;;;;;;;15.63;52.33;97739.53;6298645;28;20837;-59
2024/03/16 12:41:43;;;;;;;1.20;0.57;;;;;;;15.37;51.09;97709.22;6301363;28;20643;-55
2024/03/16 12:44:47;;;;;;;2.60;1.03;;;;;;;15.46;51.79;97709.47;6301550;28;20270;-59
2024/03/16 12:47:48;;;;;;;1.77;0.70;;;;;;;15.70;51.17;97734.66;6298207;28;20190;-55
2024/03/16 12:50:50;;;;;;;2.67;0.70;;;;;;;15.51;51.28;97696.03;6297582;28;20324;-53
2024/03/16 12:53:51;;;;;;;4.30;0.70;;;;;;;15.76;49.93;97718.53;6290020;28;20679;-56
2024/03/16 12:56:52;;;;;;;2.37;0.60;;;;;;;15.56;52.37;97712.13;6295078;28;20244;-54
2024/03/16 12:59:54;;;;;;;0.97;0.67;;;;;;;15.69;49.40;97722.31;6303097;28;20198;-53
2024/03/16 13:02:56;;;;;;;1.90;1.10;;;;;;;15.63;49.66;97728.78;6298636;28;20204;-59
2024/03/16 13:05:57;;;;;;;0.80;0.60;;;;;;;15.12;51.50;97739.59;6293412;28;20972;-58
2024/03/16 13:09:02;;;;;;;1.80;0.70;;;;;;;15.02;54.94;97725.34;6299429;28;20201;-53
2024/03/16 13:12:10;;;;;;;4.50;0.67;;;;;;;15.08;53.57;97724.31;6295170;28;20663;-53
2024/03/16 13:15:12;;;;;;;6.43;4.13;;;;;;;15.38;51.66;97710.84;6301600;28;20190;-53
2024/03/16 13:18:14;;;;;;;0.87;0.57;;;;;;;15.68;49.81;97733.34;6283876;28;20198;-58
2024/03/16 13:21:16;;;;;;;1.27;0.60;;;;;;;15.31;50.46;97715.66;6295107;28;20202;-54
2024/03/16 13:24:19;;;;;;;2.27;0.50;;;;;;;15.52;51.24;97703.03;6297919;28;20198;-55
2024/03/16 13:27:20;;;;;;;0.70;0.60;;;;;;;15.85;51.84;97700.78;6293606;28;20197;-58
2024/03/16 13:30:21;;;;;;;3.37;2.70;;;;;;;15.77;49.57;97688.72;6300360;28;20189;-56
2024/03/16 13:33:22;;;;;;;2.67;1.40;;;;;;;15.92;50.14;97707.47;6298287;28;20200;-54
2024/03/16 13:36:24;;;;;;;2.20;1.10;;;;;;;16.17;49.45;97695.00;6298125;28;20227;-57
2024/03/16 13:39:30;;;;;;;3.87;1.50;;;;;;;16.17;50.33;97703.84;6294555;28;20707;-58
2024/03/16 13:42:31;;;;;;;3.40;1.20;;;;;;;16.21;49.06;97698.72;6291993;28;20182;-58
2024/03/16 13:45:41;;;;;;;40.63;32.43;;;;;;;16.12;49.39;97695.81;6293775;28;20231;-58
2024/03/16 13:48:46;;;;;;;5.63;4.70;;;;;;;16.05;49.81;97692.63;6294074;28;20182;-59
2024/03/16 13:51:48;;;;;;;9.17;7.40;;;;;;;16.08;50.79;97696.66;6295409;28;20201;-57
2024/03/16 13:54:49;;;;;;;2.37;1.20;;;;;;;15.92;49.42;97693.22;6299469;28;20200;-57
2024/03/16 13:57:50;;;;;;;5.47;3.77;;;;;;;15.82;50.24;97706.72;6299835;28;20201;-57
2024/03/16 14:00:51;;;;;;;4.30;1.90;;;;;;;15.68;50.19;97706.47;6294298;28;20291;-59
2024/03/16 14:03:58;;;;;;;1.57;0.90;;;;;;;15.55;51.54;97699.78;6298126;28;20190;-54
2024/03/16 14:07:00;;;;;;;3.80;2.03;;;;;;;15.59;51.25;97711.56;6304276;28;20243;-56
2024/03/16 14:10:02;;;;;;;1.33;0.93;;;;;;;15.38;53.66;97726.94;6295554;28;20210;-55
2024/03/16 14:13:03;;;;;;;0.63;0.50;;;;;;;15.04;54.11;97721.34;6297894;28;20215;-55
2024/03/16 14:16:07;;;;;;;1.10;0.57;;;;;;;14.64;55.03;97703.38;6299562;28;20185;-46
2024/03/16 14:19:09;;;;;;;1.80;0.70;;;;;;;14.62;55.59;97708.97;6293423;28;20180;-56